Time;durP1;ratioP1;P1;durP2;ratioP2;P2;SDS_P1;SDS_P2;PMS_P1;PMS_P2;Temp;Humidity;BMP_temperature;BMP_pressure;BME280_temperature;BME280_humidity;BME280_pressure;Samples;Min_cycle;Max_cycle;Signal;HPM_P1;HPM_P2
2023/07/14 00:01:34;;;;;;;7.10;6.40;;;;;;;;;;108117;1270;40862;-36
2023/07/14 00:04:15;;;;;;;7.70;6.00;;;;;;;;;;108208;1267;40119;-42
2023/07/14 00:06:52;;;;;;;7.00;6.30;;;;;;;;;;108225;1270;38862;-41
2023/07/14 00:09:28;;;;;;;6.70;5.90;;;;;;;;;;108195;1262;42587;-41
2023/07/14 00:12:06;;;;;;;7.00;6.30;;;;;;;;;;108083;1272;40960;-41
2023/07/14 00:14:40;;;;;;;6.70;5.50;;;;;;;;;;108113;1273;40276;-41
2023/07/14 00:17:15;;;;;;;6.50;5.80;;;;;;;;;;108134;1273;38894;-41
2023/07/14 00:19:52;;;;;;;6.50;5.60;;;;;;;;;;108106;1273;40351;-41
2023/07/14 00:22:30;;;;;;;7.00;5.50;;;;;;;;;;108131;1273;41028;-42
2023/07/14 00:25:08;;;;;;;6.30;5.30;;;;;;;;;;108094;1273;175552;-41
2023/07/14 00:27:43;;;;;;;7.00;5.60;;;;;;;;;;108199;1269;39292;-42
2023/07/14 00:30:23;;;;;;;6.30;5.40;;;;;;;;;;108223;1273;40143;-41
2023/07/14 00:32:59;;;;;;;6.20;5.40;;;;;;;;;;108090;1271;41122;-42
2023/07/14 00:35:36;;;;;;;6.50;5.80;;;;;;;;;;108082;1258;39923;-42
2023/07/14 00:38:11;;;;;;;6.30;5.60;;;;;;;;;;108090;1263;40025;-42
2023/07/14 00:40:48;;;;;;;6.60;5.80;;;;;;;;;;108118;1273;40357;-42
2023/07/14 00:43:25;;;;;;;7.00;5.70;;;;;;;;;;108297;1264;46527;-42
2023/07/14 00:46:01;;;;;;;6.40;5.50;;;;;;;;;;108231;1273;39922;-43
2023/07/14 00:48:36;;;;;;;6.60;5.40;;;;;;;;;;108204;1270;40204;-42
2023/07/14 00:51:16;;;;;;;6.80;5.40;;;;;;;;;;108205;1258;40113;-42
2023/07/14 00:53:51;;;;;;;6.50;5.60;;;;;;;;;;108104;1257;47254;-42
2023/07/14 00:56:40;;;;;;;6.50;5.70;;;;;;;;;;108099;1263;40117;-43
2023/07/14 00:59:18;;;;;;;6.80;5.40;;;;;;;;;;108119;1273;38851;-42
2023/07/14 01:02:21;;;;;;;6.90;5.50;;;;;;;;;;108072;1258;40350;-42
2023/07/14 01:05:00;;;;;;;7.50;5.60;;;;;;;;;;108204;1264;40858;-41
2023/07/14 01:07:39;;;;;;;6.60;5.80;;;;;;;;;;108196;1273;40100;-41
2023/07/14 01:10:23;;;;;;;6.00;5.30;;;;;;;;;;108201;1270;38946;-40
2023/07/14 01:13:07;;;;;;;6.10;5.30;;;;;;;;;;108111;1267;41365;-41
2023/07/14 01:15:43;;;;;;;6.20;5.50;;;;;;;;;;108118;1273;40983;-41
2023/07/14 01:18:22;;;;;;;6.00;5.40;;;;;;;;;;108010;1273;175527;-41
2023/07/14 01:20:56;;;;;;;7.10;5.60;;;;;;;;;;108103;1270;39944;-42
2023/07/14 01:23:50;;;;;;;6.70;5.50;;;;;;;;;;108172;1262;40505;-41
2023/07/14 01:26:41;;;;;;;6.20;5.50;;;;;;;;;;108212;1273;41983;-41
2023/07/14 01:29:17;;;;;;;6.30;5.40;;;;;;;;;;108203;1273;39972;-41
2023/07/14 01:31:53;;;;;;;6.10;5.40;;;;;;;;;;108210;1269;38820;-41
2023/07/14 01:34:28;;;;;;;6.60;5.50;;;;;;;;;;108255;1263;48059;-40
2023/07/14 01:37:03;;;;;;;6.20;5.20;;;;;;;;;;108148;1258;41182;-41
2023/07/14 01:39:39;;;;;;;6.70;5.70;;;;;;;;;;108113;1267;40166;-41
2023/07/14 01:42:13;;;;;;;6.30;5.50;;;;;;;;;;108169;1273;38909;-41
2023/07/14 01:44:49;;;;;;;6.20;5.10;;;;;;;;;;108165;1264;45652;-41
2023/07/14 01:47:24;;;;;;;6.50;5.60;;;;;;;;;;108248;1269;41025;-40
2023/07/14 01:50:02;;;;;;;6.10;5.50;;;;;;;;;;108204;1270;40016;-42
2023/07/14 01:52:36;;;;;;;6.10;5.50;;;;;;;;;;108199;1273;38751;-42
2023/07/14 01:55:15;;;;;;;6.20;5.50;;;;;;;;;;108123;1257;40051;-41
2023/07/14 01:57:52;;;;;;;5.70;5.10;;;;;;;;;;108117;1267;41126;-41
2023/07/14 02:00:28;;;;;;;6.30;5.30;;;;;;;;;;108144;1271;39977;-42
2023/07/14 02:03:03;;;;;;;5.80;5.20;;;;;;;;;;108097;1257;40015;-40
2023/07/14 02:05:39;;;;;;;6.10;5.30;;;;;;;;;;108238;1269;40488;-41
2023/07/14 02:08:23;;;;;;;6.50;5.20;;;;;;;;;;108243;1266;40725;-41
2023/07/14 02:10:57;;;;;;;5.70;5.00;;;;;;;;;;108283;1269;41202;-42
2023/07/14 02:13:34;;;;;;;6.50;5.20;;;;;;;;;;108199;1257;38569;-42
2023/07/14 02:16:11;;;;;;;6.00;5.00;;;;;;;;;;108219;1273;39849;-43
2023/07/14 02:18:47;;;;;;;5.70;5.00;;;;;;;;;;108160;1267;40950;-41
2023/07/14 02:21:28;;;;;;;5.40;4.80;;;;;;;;;;108142;1273;42457;-41
2023/07/14 02:24:05;;;;;;;6.20;4.80;;;;;;;;;;108142;1261;39424;-38
2023/07/14 02:26:41;;;;;;;5.50;4.70;;;;;;;;;;108212;1264;40064;-37
2023/07/14 02:29:18;;;;;;;5.60;4.80;;;;;;;;;;108205;1266;41449;-36
2023/07/14 02:31:58;;;;;;;6.20;4.90;;;;;;;;;;108208;1270;39942;-37
2023/07/14 02:34:38;;;;;;;5.60;4.80;;;;;;;;;;108145;1273;39136;-37
2023/07/14 02:38:03;;;;;;;6.50;4.70;;;;;;;;;;108108;1273;40028;-37
2023/07/14 02:40:46;;;;;;;5.60;4.80;;;;;;;;;;108127;1273;40877;-38
2023/07/14 02:43:23;;;;;;;5.50;4.60;;;;;;;;;;108135;1264;40107;-37
2023/07/14 02:46:01;;;;;;;5.60;4.70;;;;;;;;;;108159;1257;39978;-37
2023/07/14 02:48:42;;;;;;;5.80;4.80;;;;;;;;;;108128;1273;41481;-37
2023/07/14 02:51:16;;;;;;;6.00;5.30;;;;;;;;;;108190;1264;40814;-37
2023/07/14 02:53:51;;;;;;;6.00;5.00;;;;;;;;;;108107;1273;41303;-38
2023/07/14 02:56:25;;;;;;;5.30;4.70;;;;;;;;;;108202;1273;46093;-36
2023/07/14 02:58:59;;;;;;;7.00;5.90;;;;;;;;;;108223;1259;40062;-36
2023/07/14 03:01:33;;;;;;;6.50;5.70;;;;;;;;;;108206;1258;40781;-36
2023/07/14 03:04:09;;;;;;;6.60;5.50;;;;;;;;;;108196;1257;39927;-37
2023/07/14 03:06:44;;;;;;;6.00;5.40;;;;;;;;;;108141;1265;45903;-37
2023/07/14 03:09:20;;;;;;;6.20;5.50;;;;;;;;;;108092;1257;41266;-37
2023/07/14 03:11:54;;;;;;;6.60;5.80;;;;;;;;;;108146;1257;42160;-36
2023/07/14 03:14:29;;;;;;;6.40;5.40;;;;;;;;;;108143;1262;41268;-37
2023/07/14 03:17:04;;;;;;;6.50;5.50;;;;;;;;;;108206;1258;45103;-36
2023/07/14 03:19:38;;;;;;;6.80;6.10;;;;;;;;;;108275;1263;41252;-37
2023/07/14 03:22:12;;;;;;;7.10;5.80;;;;;;;;;;108209;1270;40973;-37
2023/07/14 03:24:47;;;;;;;6.30;5.60;;;;;;;;;;108171;1273;39614;-37
2023/07/14 03:27:24;;;;;;;6.20;5.50;;;;;;;;;;108170;1271;45063;-37
2023/07/14 03:29:58;;;;;;;6.40;5.30;;;;;;;;;;108177;1264;40714;-37
2023/07/14 03:32:35;;;;;;;6.40;5.70;;;;;;;;;;108163;1270;40947;-37
2023/07/14 03:35:10;;;;;;;6.50;5.70;;;;;;;;;;108103;1273;39889;-37
2023/07/14 03:37:44;;;;;;;6.50;5.40;;;;;;;;;;108229;1263;46999;-37
2023/07/14 03:40:19;;;;;;;6.70;6.00;;;;;;;;;;108223;1267;40250;-37
2023/07/14 03:42:54;;;;;;;6.60;5.50;;;;;;;;;;108198;1270;41029;-36
2023/07/14 03:45:31;;;;;;;6.40;5.80;;;;;;;;;;108193;1273;39935;-37
2023/07/14 03:48:07;;;;;;;7.00;5.80;;;;;;;;;;108178;1269;44437;-36
2023/07/14 03:50:41;;;;;;;6.50;5.40;;;;;;;;;;108225;1265;41243;-37
2023/07/14 03:53:16;;;;;;;6.80;6.10;;;;;;;;;;108210;1264;40801;-37
2023/07/14 03:55:53;;;;;;;6.30;5.70;;;;;;;;;;108165;1262;40252;-37
2023/07/14 03:58:28;;;;;;;6.00;5.40;;;;;;;;;;108246;1271;44878;-37
2023/07/14 04:01:06;;;;;;;6.80;5.50;;;;;;;;;;108280;1272;40022;-36
2023/07/14 04:03:41;;;;;;;6.90;5.70;;;;;;;;;;108278;1269;40757;-37
2023/07/14 04:06:16;;;;;;;6.20;5.50;;;;;;;;;;108209;1258;39714;-37
2023/07/14 04:08:53;;;;;;;6.60;5.80;;;;;;;;;;108221;1260;38828;-37
2023/07/14 04:11:28;;;;;;;6.30;5.50;;;;;;;;;;108224;1270;39972;-36
2023/07/14 04:14:23;;;;;;;6.90;5.90;;;;;;;;;;108208;1261;40727;-36
2023/07/14 04:16:59;;;;;;;6.40;5.40;;;;;;;;;;108154;1256;40111;-36
2023/07/14 04:19:33;;;;;;;7.40;5.40;;;;;;;;;;108276;1263;38729;-36
2023/07/14 04:22:09;;;;;;;6.80;5.40;;;;;;;;;;108276;1264;40293;-36
2023/07/14 04:24:44;;;;;;;6.20;5.30;;;;;;;;;;108267;1260;43270;-37
2023/07/14 04:27:18;;;;;;;7.40;5.90;;;;;;;;;;108234;1257;40197;-37
2023/07/14 04:29:52;;;;;;;7.00;5.60;;;;;;;;;;108176;1270;39188;-36
2023/07/14 04:32:27;;;;;;;7.10;6.00;;;;;;;;;;108205;1270;40160;-36
2023/07/14 04:35:02;;;;;;;6.30;5.60;;;;;;;;;;108200;1269;40866;-37
2023/07/14 04:37:38;;;;;;;6.80;5.80;;;;;;;;;;108161;1260;41265;-37
2023/07/14 04:40:14;;;;;;;7.50;5.80;;;;;;;;;;108131;1270;38795;-36
2023/07/14 04:43:08;;;;;;;6.30;5.00;;;;;;;;;;108309;1272;40008;-41
2023/07/14 04:45:44;;;;;;;6.30;5.30;;;;;;;;;;108250;1257;41097;-40
2023/07/14 04:48:23;;;;;;;6.90;5.00;;;;;;;;;;108200;1269;39882;-40
2023/07/14 04:50:58;;;;;;;5.80;4.90;;;;;;;;;;108201;1257;38856;-40
2023/07/14 04:53:32;;;;;;;6.00;4.90;;;;;;;;;;108189;1273;40229;-41
2023/07/14 04:56:08;;;;;;;6.40;4.80;;;;;;;;;;108190;1257;41227;-40
2023/07/14 04:58:45;;;;;;;6.50;4.90;;;;;;;;;;108191;1257;39958;-40
2023/07/14 05:01:19;;;;;;;6.40;4.80;;;;;;;;;;108263;1272;38602;-40
2023/07/14 05:03:54;;;;;;;6.00;4.60;;;;;;;;;;108247;1272;41494;-40
2023/07/14 05:06:28;;;;;;;6.40;4.50;;;;;;;;;;108265;1260;41403;-40
2023/07/14 05:09:03;;;;;;;6.50;5.10;;;;;;;;;;108169;1260;41014;-40
2023/07/14 05:11:38;;;;;;;5.80;4.80;;;;;;;;;;108189;1269;38781;-40
2023/07/14 05:14:12;;;;;;;6.00;5.10;;;;;;;;;;108184;1270;40031;-41
2023/07/14 05:16:48;;;;;;;6.60;5.30;;;;;;;;;;108191;1273;43924;-41
2023/07/14 05:19:24;;;;;;;5.80;4.70;;;;;;;;;;108187;1257;39798;-39
2023/07/14 05:21:59;;;;;;;5.40;4.70;;;;;;;;;;108206;1260;38789;-41
2023/07/14 05:24:33;;;;;;;5.70;4.70;;;;;;;;;;108231;1269;40251;-41
2023/07/14 05:27:07;;;;;;;6.40;4.80;;;;;;;;;;108205;1272;41163;-41
2023/07/14 05:29:42;;;;;;;6.00;4.70;;;;;;;;;;108205;1258;41413;-41
2023/07/14 05:32:16;;;;;;;5.50;4.70;;;;;;;;;;108217;1269;38779;-39
2023/07/14 05:34:53;;;;;;;5.10;4.40;;;;;;;;;;108189;1270;41340;-41
2023/07/14 05:37:30;;;;;;;5.50;4.70;;;;;;;;;;108221;1267;40769;-42
2023/07/14 05:40:08;;;;;;;5.60;4.50;;;;;;;;;;108213;1270;39983;-42
2023/07/14 05:42:43;;;;;;;6.50;4.60;;;;;;;;;;108242;1270;38648;-40
2023/07/14 05:45:18;;;;;;;6.40;4.60;;;;;;;;;;108128;1270;175966;-40
2023/07/14 05:47:53;;;;;;;6.60;5.00;;;;;;;;;;108164;1260;175501;-39
2023/07/14 05:50:28;;;;;;;5.60;4.60;;;;;;;;;;108206;1260;40156;-38
2023/07/14 05:53:03;;;;;;;6.80;4.90;;;;;;;;;;108249;1265;39341;-40
2023/07/14 05:55:40;;;;;;;5.90;4.80;;;;;;;;;;108081;1267;175006;-40
2023/07/14 05:58:17;;;;;;;5.70;4.70;;;;;;;;;;108196;1273;40965;-40
2023/07/14 06:00:53;;;;;;;6.10;4.90;;;;;;;;;;108243;1260;39791;-40
2023/07/14 06:03:28;;;;;;;5.70;4.70;;;;;;;;;;108258;1260;38741;-40
2023/07/14 06:06:06;;;;;;;6.80;5.00;;;;;;;;;;108216;1272;40327;-41
2023/07/14 06:08:42;;;;;;;7.20;5.20;;;;;;;;;;108229;1257;40907;-41
2023/07/14 06:11:16;;;;;;;5.80;4.80;;;;;;;;;;108187;1270;42339;-40
2023/07/14 06:13:50;;;;;;;6.60;5.00;;;;;;;;;;108225;1270;40241;-40
2023/07/14 06:16:24;;;;;;;6.40;4.70;;;;;;;;;;108049;1258;40437;-40
2023/07/14 06:18:59;;;;;;;5.90;4.90;;;;;;;;;;108143;1257;42289;-40
2023/07/14 06:21:34;;;;;;;6.10;4.90;;;;;;;;;;108229;1270;41441;-39
2023/07/14 06:24:10;;;;;;;5.90;4.90;;;;;;;;;;108239;1266;38607;-41
2023/07/14 06:26:44;;;;;;;6.30;4.80;;;;;;;;;;108262;1268;40284;-40
2023/07/14 06:29:19;;;;;;;5.80;4.80;;;;;;;;;;108217;1257;41449;-42
2023/07/14 06:31:54;;;;;;;6.90;5.00;;;;;;;;;;108289;1270;40383;-42
2023/07/14 06:34:28;;;;;;;6.20;4.90;;;;;;;;;;108260;1257;39024;-43
2023/07/14 06:37:07;;;;;;;6.00;5.00;;;;;;;;;;108278;1270;40362;-42
2023/07/14 06:39:41;;;;;;;7.00;4.80;;;;;;;;;;108245;1257;41022;-42
2023/07/14 06:42:16;;;;;;;5.50;4.50;;;;;;;;;;108286;1258;40278;-43
2023/07/14 06:44:50;;;;;;;6.00;4.90;;;;;;;;;;108293;1260;38829;-42
2023/07/14 06:47:25;;;;;;;5.70;4.90;;;;;;;;;;108233;1270;40321;-43
2023/07/14 06:49:59;;;;;;;5.30;4.30;;;;;;;;;;108162;1257;41225;-42
2023/07/14 06:52:34;;;;;;;6.00;4.50;;;;;;;;;;108173;1270;40273;-42
2023/07/14 06:55:11;;;;;;;5.90;4.60;;;;;;;;;;108206;1272;38664;-43
2023/07/14 06:57:45;;;;;;;5.30;4.30;;;;;;;;;;108198;1260;39870;-42
2023/07/14 07:00:24;;;;;;;5.50;4.50;;;;;;;;;;108124;1257;41036;-41
2023/07/14 07:02:58;;;;;;;6.00;4.90;;;;;;;;;;108234;1260;40122;-42
2023/07/14 07:05:37;;;;;;;5.50;4.60;;;;;;;;;;108245;1269;38907;-42
2023/07/14 07:08:15;;;;;;;6.10;4.60;;;;;;;;;;108189;1261;40538;-43
2023/07/14 07:10:49;;;;;;;5.20;4.20;;;;;;;;;;108155;1260;40988;-42
2023/07/14 07:13:24;;;;;;;5.40;4.60;;;;;;;;;;108173;1261;40017;-44
2023/07/14 07:15:58;;;;;;;7.10;4.90;;;;;;;;;;108207;1267;38950;-43
2023/07/14 07:18:33;;;;;;;5.50;4.40;;;;;;;;;;108188;1270;40152;-42
2023/07/14 07:21:12;;;;;;;6.10;4.50;;;;;;;;;;108137;1270;40848;-42
2023/07/14 07:23:46;;;;;;;6.30;4.80;;;;;;;;;;108204;1269;41182;-42
2023/07/14 07:26:21;;;;;;;5.70;4.50;;;;;;;;;;108205;1273;38675;-43
2023/07/14 07:28:56;;;;;;;6.10;4.50;;;;;;;;;;108236;1269;40035;-41
2023/07/14 07:31:31;;;;;;;6.20;4.60;;;;;;;;;;108196;1260;41508;-40
2023/07/14 07:34:05;;;;;;;6.00;4.40;;;;;;;;;;108189;1269;40039;-38
2023/07/14 07:36:43;;;;;;;5.80;4.50;;;;;;;;;;108186;1271;38928;-40
2023/07/14 07:39:17;;;;;;;5.30;4.10;;;;;;;;;;108176;1273;40207;-39
2023/07/14 07:41:52;;;;;;;5.70;4.60;;;;;;;;;;108185;1260;40993;-40
2023/07/14 07:44:27;;;;;;;5.10;4.40;;;;;;;;;;108231;1272;39985;-40
2023/07/14 07:47:05;;;;;;;6.20;4.30;;;;;;;;;;108239;1272;38916;-40
2023/07/14 07:49:40;;;;;;;5.50;4.30;;;;;;;;;;108215;1257;40555;-41
2023/07/14 07:52:14;;;;;;;5.80;4.50;;;;;;;;;;108178;1260;41167;-39
2023/07/14 07:54:54;;;;;;;5.80;4.60;;;;;;;;;;108212;1270;39922;-40
2023/07/14 07:57:28;;;;;;;5.90;4.40;;;;;;;;;;108223;1260;38860;-41
2023/07/14 08:00:03;;;;;;;5.60;4.40;;;;;;;;;;108160;1257;40254;-42
2023/07/14 08:02:38;;;;;;;5.50;4.30;;;;;;;;;;108099;1260;175468;-40
2023/07/14 08:05:15;;;;;;;5.60;4.20;;;;;;;;;;108230;1260;40407;-41
2023/07/14 08:07:49;;;;;;;5.80;4.50;;;;;;;;;;108255;1268;38909;-46
2023/07/14 08:10:24;;;;;;;6.50;4.40;;;;;;;;;;108239;1266;41279;-41
2023/07/14 08:12:58;;;;;;;5.50;4.40;;;;;;;;;;108177;1261;40852;-42
2023/07/14 08:15:37;;;;;;;5.80;4.20;;;;;;;;;;108217;1272;40373;-40
2023/07/14 08:18:11;;;;;;;5.30;4.00;;;;;;;;;;108211;1269;38524;-40
2023/07/14 08:20:46;;;;;;;5.80;4.00;;;;;;;;;;108230;1270;40033;-41
2023/07/14 08:23:23;;;;;;;5.20;3.60;;;;;;;;;;108198;1260;40829;-40
2023/07/14 08:26:03;;;;;;;5.00;3.80;;;;;;;;;;108248;1257;40276;-40
2023/07/14 08:28:37;;;;;;;5.20;4.20;;;;;;;;;;108265;1264;40150;-40
2023/07/14 08:31:16;;;;;;;5.10;3.70;;;;;;;;;;108227;1258;41132;-40
2023/07/14 08:33:51;;;;;;;5.10;3.80;;;;;;;;;;108219;1260;42011;-40
2023/07/14 08:36:26;;;;;;;4.80;3.70;;;;;;;;;;108220;1268;41679;-39
2023/07/14 08:39:01;;;;;;;4.80;3.60;;;;;;;;;;108227;1268;39163;-40
2023/07/14 08:41:41;;;;;;;5.20;3.60;;;;;;;;;;108170;1270;41397;-40
2023/07/14 08:44:45;;;;;;;6.70;4.10;;;;;;;;;;108253;1266;48650;-40
2023/07/14 08:47:25;;;;;;;5.20;3.50;;;;;;;;;;108276;1272;39913;-42
2023/07/14 08:50:06;;;;;;;5.40;3.50;;;;;;;;;;108234;1269;38921;-40
2023/07/14 08:52:42;;;;;;;4.80;3.40;;;;;;;;;;108211;1257;40098;-40
2023/07/14 08:55:21;;;;;;;6.30;3.40;;;;;;;;;;108199;1272;42353;-40
2023/07/14 08:58:00;;;;;;;5.30;3.60;;;;;;;;;;108216;1258;41566;-40
2023/07/14 09:00:41;;;;;;;5.10;3.40;;;;;;;;;;108235;1269;38988;-41
2023/07/14 09:03:22;;;;;;;4.90;3.10;;;;;;;;;;108167;1260;40957;-41
2023/07/14 09:06:02;;;;;;;5.20;3.10;;;;;;;;;;108265;1269;41111;-40
2023/07/14 09:08:36;;;;;;;5.10;3.30;;;;;;;;;;108230;1261;40023;-40
2023/07/14 09:11:32;;;;;;;4.90;2.90;;;;;;;;;;108221;1261;38731;-40
2023/07/14 09:14:24;;;;;;;5.10;3.00;;;;;;;;;;108166;1260;40142;-41
2023/07/14 09:17:07;;;;;;;4.70;3.10;;;;;;;;;;108200;1259;40960;-40
2023/07/14 09:20:18;;;;;;;5.00;2.90;;;;;;;;;;108235;1270;41283;-41
2023/07/14 09:23:01;;;;;;;4.50;3.00;;;;;;;;;;108107;1272;38911;-42
2023/07/14 09:25:44;;;;;;;4.30;2.80;;;;;;;;;;108289;1269;41709;-41
2023/07/14 09:28:24;;;;;;;4.90;2.70;;;;;;;;;;108297;1269;40904;-42
2023/07/14 09:31:00;;;;;;;4.90;3.00;;;;;;;;;;108308;1256;40077;-41
2023/07/14 09:33:52;;;;;;;4.90;2.90;;;;;;;;;;108260;1260;38756;-41
2023/07/14 09:36:26;;;;;;;4.70;2.50;;;;;;;;;;108272;1268;40310;-40
2023/07/14 09:39:04;;;;;;;4.90;2.90;;;;;;;;;;108226;1268;41432;-40
2023/07/14 09:41:38;;;;;;;5.10;2.80;;;;;;;;;;108251;1272;40277;-40
2023/07/14 09:44:13;;;;;;;4.40;2.60;;;;;;;;;;108184;1260;38821;-39
2023/07/14 09:46:50;;;;;;;3.90;2.40;;;;;;;;;;108322;1257;40179;-40
2023/07/14 09:49:38;;;;;;;5.00;2.40;;;;;;;;;;108173;1272;194198;-40
2023/07/14 09:52:20;;;;;;;4.70;2.50;;;;;;;;;;108330;1267;40134;-40
2023/07/14 09:54:59;;;;;;;5.00;2.40;;;;;;;;;;108224;1257;39083;-40
2023/07/14 09:57:35;;;;;;;4.30;2.50;;;;;;;;;;108250;1260;41326;-42
2023/07/14 10:00:25;;;;;;;4.30;2.20;;;;;;;;;;108175;1272;40567;-39
2023/07/14 10:03:15;;;;;;;4.00;2.40;;;;;;;;;;108206;1272;42334;-40
2023/07/14 10:06:05;;;;;;;3.60;2.00;;;;;;;;;;108252;1261;44928;-40
2023/07/14 10:08:50;;;;;;;3.90;2.20;;;;;;;;;;108218;1268;175491;-40
2023/07/14 10:11:29;;;;;;;4.80;2.20;;;;;;;;;;108296;1260;42467;-40
2023/07/14 10:14:19;;;;;;;4.10;2.30;;;;;;;;;;108288;1260;39948;-41
2023/07/14 10:16:54;;;;;;;3.80;2.10;;;;;;;;;;108208;1264;40231;-40
2023/07/14 10:19:40;;;;;;;4.20;2.30;;;;;;;;;;108232;1269;40229;-41
2023/07/14 10:22:22;;;;;;;3.70;2.20;;;;;;;;;;108223;1260;42054;-41
2023/07/14 10:25:01;;;;;;;4.80;2.30;;;;;;;;;;108197;1257;40023;-41
2023/07/14 10:27:41;;;;;;;4.20;2.30;;;;;;;;;;108317;1272;40547;-40
2023/07/14 10:30:25;;;;;;;3.90;2.20;;;;;;;;;;108288;1257;41358;-40
2023/07/14 10:33:05;;;;;;;3.70;2.00;;;;;;;;;;108274;1272;40803;-40
2023/07/14 10:35:39;;;;;;;4.10;2.10;;;;;;;;;;108187;1269;40008;-39
2023/07/14 10:38:21;;;;;;;4.30;2.30;;;;;;;;;;108255;1260;38774;-40
2023/07/14 10:41:01;;;;;;;;;;;;;;;;;;108265;1257;40025;-40
2023/07/14 10:43:43;;;;;;;4.30;2.20;;;;;;;;;;108248;1261;40994;-40
2023/07/14 10:46:22;;;;;;;3.60;2.00;;;;;;;;;;108193;1260;39903;-40
2023/07/14 10:49:05;;;;;;;3.80;1.90;;;;;;;;;;108259;1261;38700;-40
2023/07/14 10:51:47;;;;;;;4.00;1.90;;;;;;;;;;108256;1264;40179;-40
2023/07/14 10:54:29;;;;;;;4.40;2.20;;;;;;;;;;108260;1270;40980;-41
2023/07/14 10:57:12;;;;;;;5.70;2.30;;;;;;;;;;108217;1261;46166;-40
2023/07/14 10:59:52;;;;;;;4.00;1.90;;;;;;;;;;108289;1269;39102;-40
2023/07/14 11:02:34;;;;;;;4.20;2.10;;;;;;;;;;108291;1257;41362;-41
2023/07/14 11:05:15;;;;;;;3.70;1.80;;;;;;;;;;108278;1260;41235;-40
2023/07/14 11:07:52;;;;;;;3.70;1.90;;;;;;;;;;108248;1268;39944;-41
2023/07/14 11:10:36;;;;;;;4.30;2.00;;;;;;;;;;108228;1260;38526;-40
2023/07/14 11:13:23;;;;;;;3.80;1.70;;;;;;;;;;108220;1262;40201;-40
2023/07/14 11:16:05;;;;;;;3.80;1.80;;;;;;;;;;108214;1256;40845;-39
2023/07/14 11:18:49;;;;;;;3.90;1.70;;;;;;;;;;108230;1268;39968;-39
2023/07/14 11:21:36;;;;;;;3.50;1.80;;;;;;;;;;108248;1265;40011;-40
2023/07/14 11:24:21;;;;;;;3.60;1.80;;;;;;;;;;108223;1258;40044;-39
2023/07/14 11:27:30;;;;;;;3.90;1.80;;;;;;;;;;107562;1262;893031;-41
2023/07/14 11:30:11;;;;;;;3.60;1.80;;;;;;;;;;108285;1268;40042;-40
2023/07/14 11:32:56;;;;;;;3.60;1.60;;;;;;;;;;108333;1268;38775;-39
2023/07/14 11:35:36;;;;;;;3.40;1.60;;;;;;;;;;108102;1273;41108;-40
2023/07/14 11:38:39;;;;;;;3.30;1.60;;;;;;;;;;108059;1261;47418;-40
2023/07/14 11:41:15;;;;;;;4.00;1.60;;;;;;;;;;108042;1273;39890;-39
2023/07/14 11:43:50;;;;;;;3.40;1.60;;;;;;;;;;108065;1271;40024;-39
2023/07/14 11:46:29;;;;;;;3.00;1.50;;;;;;;;;;108069;1257;40232;-39
2023/07/14 11:49:25;;;;;;;3.30;1.50;;;;;;;;;;107976;1273;193959;-39
2023/07/14 11:52:12;;;;;;;3.30;1.50;;;;;;;;;;108134;1270;41537;-40
2023/07/14 11:55:02;;;;;;;2.80;1.50;;;;;;;;;;108146;1264;38865;-41
2023/07/14 11:57:51;;;;;;;3.20;1.40;;;;;;;;;;108059;1263;40001;-39
2023/07/14 12:00:38;;;;;;;3.20;1.50;;;;;;;;;;108059;1258;40855;-39
2023/07/14 12:03:30;;;;;;;2.80;1.40;;;;;;;;;;108112;1258;41463;-39
2023/07/14 12:07:19;;;;;;;2.60;1.40;;;;;;;;;;108049;1273;38908;-40
2023/07/14 12:10:15;;;;;;;2.90;1.30;;;;;;;;;;107833;1273;46365;-41
2023/07/14 12:13:28;;;;;;;3.10;1.40;;;;;;;;;;108032;1270;41251;-40
2023/07/14 12:16:24;;;;;;;;;;;;;;;;;;108080;1269;39891;-40
2023/07/14 12:19:26;;;;;;;2.90;1.30;;;;;;;;;;108076;1260;38820;-40
2023/07/14 12:22:07;;;;;;;2.80;1.30;;;;;;;;;;108016;1262;175469;-40
2023/07/14 12:24:48;;;;;;;2.80;1.20;;;;;;;;;;108127;1270;40855;-41
2023/07/14 12:27:35;;;;;;;2.80;1.30;;;;;;;;;;108120;1262;40997;-40
2023/07/14 12:30:21;;;;;;;3.00;1.30;;;;;;;;;;107921;1258;175479;-40
2023/07/14 12:33:03;;;;;;;2.40;1.10;;;;;;;;;;108069;1270;40475;-40
2023/07/14 12:35:43;;;;;;;2.90;1.30;;;;;;;;;;108250;1261;41414;-42
2023/07/14 12:38:21;;;;;;;3.30;1.40;;;;;;;;;;108230;1256;40154;-41
2023/07/14 12:40:58;;;;;;;2.30;1.10;;;;;;;;;;108293;1262;38994;-39
2023/07/14 12:43:36;;;;;;;2.60;1.20;;;;;;;;;;108282;1269;40267;-39
2023/07/14 12:46:26;;;;;;;2.50;1.10;;;;;;;;;;108310;1262;40921;-39
2023/07/14 12:49:09;;;;;;;2.60;1.10;;;;;;;;;;108265;1257;39739;-39
2023/07/14 12:51:43;;;;;;;2.50;1.20;;;;;;;;;;108297;1256;38658;-39
2023/07/14 12:54:24;;;;;;;2.30;0.90;;;;;;;;;;108230;1268;40090;-40
2023/07/14 12:57:02;;;;;;;2.90;1.30;;;;;;;;;;108252;1272;41293;-41
2023/07/14 12:59:39;;;;;;;2.40;0.90;;;;;;;;;;108252;1257;39966;-39
2023/07/14 13:02:16;;;;;;;2.50;1.00;;;;;;;;;;108269;1260;38732;-39
2023/07/14 13:04:50;;;;;;;2.60;1.10;;;;;;;;;;108296;1269;40391;-40
2023/07/14 13:07:31;;;;;;;2.30;1.00;;;;;;;;;;108279;1263;41074;-40
2023/07/14 13:10:18;;;;;;;3.50;1.10;;;;;;;;;;108232;1262;41034;-41
2023/07/14 13:12:57;;;;;;;1.80;0.90;;;;;;;;;;108290;1260;38622;-39
2023/07/14 13:15:33;;;;;;;2.70;1.10;;;;;;;;;;108271;1268;40180;-40
2023/07/14 13:18:24;;;;;;;2.20;1.00;;;;;;;;;;108276;1270;41878;-42
2023/07/14 13:21:01;;;;;;;1.90;0.90;;;;;;;;;;108223;1260;40217;-42
2023/07/14 13:23:36;;;;;;;3.00;1.20;;;;;;;;;;108263;1257;39067;-43
2023/07/14 13:26:22;;;;;;;2.50;0.90;;;;;;;;;;108264;1268;40309;-42
2023/07/14 13:29:02;;;;;;;2.70;1.10;;;;;;;;;;108255;1269;41012;-43
2023/07/14 13:31:42;;;;;;;2.10;0.90;;;;;;;;;;108186;1260;45577;-43
2023/07/14 13:34:26;;;;;;;2.80;1.10;;;;;;;;;;108254;1265;38696;-43
2023/07/14 13:37:03;;;;;;;2.20;1.10;;;;;;;;;;108275;1261;39930;-43
2023/07/14 13:39:40;;;;;;;2.70;1.00;;;;;;;;;;108229;1257;41912;-42
2023/07/14 13:42:29;;;;;;;2.60;1.00;;;;;;;;;;108284;1268;40190;-43
2023/07/14 13:45:23;;;;;;;2.70;1.00;;;;;;;;;;108279;1259;38936;-44
2023/07/14 13:48:02;;;;;;;2.30;0.90;;;;;;;;;;108272;1265;41421;-42
2023/07/14 13:50:36;;;;;;;3.20;1.00;;;;;;;;;;108090;1270;176093;-42
2023/07/14 13:53:15;;;;;;;2.20;0.90;;;;;;;;;;108310;1257;41252;-42
2023/07/14 13:55:49;;;;;;;2.80;1.30;;;;;;;;;;108337;1266;40039;-43
2023/07/14 13:58:23;;;;;;;2.40;1.00;;;;;;;;;;108303;1272;39987;-41
2023/07/14 14:00:57;;;;;;;2.40;0.90;;;;;;;;;;108220;1261;42196;-42
2023/07/14 14:03:32;;;;;;;2.70;1.00;;;;;;;;;;108299;1268;39750;-43
2023/07/14 14:06:12;;;;;;;2.10;0.90;;;;;;;;;;108244;1264;39930;-43
2023/07/14 14:08:50;;;;;;;2.20;0.90;;;;;;;;;;108261;1265;41361;-43
2023/07/14 14:11:24;;;;;;;2.50;1.00;;;;;;;;;;108259;1262;40731;-42
2023/07/14 14:13:58;;;;;;;2.70;1.00;;;;;;;;;;108288;1257;40182;-42
2023/07/14 14:16:33;;;;;;;2.40;0.90;;;;;;;;;;108296;1267;40100;-43
2023/07/14 14:19:08;;;;;;;2.60;1.00;;;;;;;;;;108292;1262;41495;-42
2023/07/14 14:21:42;;;;;;;2.50;1.10;;;;;;;;;;108271;1261;40844;-43
2023/07/14 14:24:19;;;;;;;2.70;0.90;;;;;;;;;;108285;1272;40114;-42
2023/07/14 14:26:58;;;;;;;2.70;1.40;;;;;;;;;;108275;1261;39004;-42
2023/07/14 14:29:33;;;;;;;3.10;1.00;;;;;;;;;;108267;1262;40266;-42
2023/07/14 14:32:15;;;;;;;2.40;0.90;;;;;;;;;;108273;1257;40951;-42
2023/07/14 14:34:51;;;;;;;3.10;1.10;;;;;;;;;;108337;1257;40108;-42
2023/07/14 14:37:25;;;;;;;2.30;1.00;;;;;;;;;;108270;1269;38914;-42
2023/07/14 14:40:01;;;;;;;1.90;0.90;;;;;;;;;;108272;1269;40325;-42
2023/07/14 14:42:38;;;;;;;2.00;0.90;;;;;;;;;;108242;1261;42039;-42
2023/07/14 14:45:24;;;;;;;2.40;0.90;;;;;;;;;;108306;1272;40516;-43
2023/07/14 14:47:58;;;;;;;2.30;0.90;;;;;;;;;;108262;1268;39026;-43
2023/07/14 14:50:34;;;;;;;2.30;0.90;;;;;;;;;;108308;1265;41308;-43
2023/07/14 14:53:13;;;;;;;2.10;1.00;;;;;;;;;;108236;1261;40774;-43
2023/07/14 14:55:48;;;;;;;2.20;0.90;;;;;;;;;;108298;1272;40027;-43
2023/07/14 14:58:25;;;;;;;2.80;1.00;;;;;;;;;;108288;1272;38673;-43
2023/07/14 15:01:04;;;;;;;2.90;1.10;;;;;;;;;;108264;1272;39827;-44
2023/07/14 15:03:39;;;;;;;2.20;1.00;;;;;;;;;;108268;1256;48066;-42
2023/07/14 15:06:14;;;;;;;2.70;1.00;;;;;;;;;;108278;1268;40169;-43
2023/07/14 15:08:51;;;;;;;2.40;0.90;;;;;;;;;;108280;1269;39178;-42
2023/07/14 15:11:26;;;;;;;2.30;0.90;;;;;;;;;;108223;1261;39862;-42
2023/07/14 15:14:06;;;;;;;2.80;1.00;;;;;;;;;;108279;1272;47478;-43
2023/07/14 15:16:41;;;;;;;2.80;1.10;;;;;;;;;;108294;1272;40068;-42
2023/07/14 15:19:23;;;;;;;2.70;1.00;;;;;;;;;;108309;1272;39949;-42
2023/07/14 15:21:59;;;;;;;1.90;0.90;;;;;;;;;;108292;1257;39884;-42
2023/07/14 15:24:34;;;;;;;3.00;0.90;;;;;;;;;;108317;1269;41470;-43
2023/07/14 15:27:16;;;;;;;2.50;1.00;;;;;;;;;;108282;1257;40102;-42
2023/07/14 15:29:52;;;;;;;1.90;1.00;;;;;;;;;;108295;1267;38791;-42
2023/07/14 15:32:26;;;;;;;2.60;1.00;;;;;;;;;;108302;1256;41684;-42
2023/07/14 15:35:06;;;;;;;2.20;0.90;;;;;;;;;;108370;1261;40913;-45
2023/07/14 15:37:40;;;;;;;2.60;1.00;;;;;;;;;;108367;1268;39762;-42
2023/07/14 15:40:20;;;;;;;2.00;0.90;;;;;;;;;;108340;1268;39335;-42